»·PEaware :: N375PT L18-KHND

N375PT :: L18-KHND

FLIGHT INFORMATION

Flight Status: Arrived
Operator: Privately registered:
United States
More flights under this callsign
Pilot: Joe C. (32102)
Aircraft: SOCATA TBM-900
(TBM9)
More flights by this aircraft type
Origin: L18 Fallbrook Community
United States
Destination: KHND Henderson
United States
More flights between these airports :: More routes between these airports
Route: FALL1 TANNR HDF V283 BOACH
File this flight plan on PilotEdge
Remarks:
Altitude:
(Current/Filed)
29,000ft
Speed:
(Current/Filed)
320kts
Departed: 22-Dec-20 09:02 PM
Arrived: 22-Dec-20 09:56 PM
Distance/Time
Traveled:
189nm/0:54
Distance/Time
To Go:
Arrived

Flight Plot

Page will automatically refresh every two minutes.

Flight plan parsing failed; only flown route is shown


Map Options




Map Legend


Flown Route
Filed Route
Departure Airport
Arrival Airport
Navaid (VOR, NDB)
Fix

Horizontal Profiles

Position Reports

Time Latitude Longitude Heading Altitude Ground
Speed
22-Dec-20 20:44 33.352894 -117.250343 269 670ft 0kts
22-Dec-20 20:45 33.352894 -117.250343 269 670ft 0kts
22-Dec-20 20:46 33.352894 -117.250343 269 670ft 0kts
22-Dec-20 20:47 33.352894 -117.250343 269 670ft 0kts
22-Dec-20 20:48 33.352894 -117.250343 269 670ft 0kts
22-Dec-20 20:49 33.352894 -117.250343 269 670ft 0kts
22-Dec-20 20:51 33.352894 -117.250343 269 670ft 0kts
22-Dec-20 20:52 33.352894 -117.250343 269 670ft 0kts
22-Dec-20 20:53 33.352894 -117.250343 269 670ft 0kts
22-Dec-20 20:54 33.352894 -117.250344 269 670ft 0kts
22-Dec-20 20:55 33.352894 -117.250344 269 670ft 0kts
22-Dec-20 20:56 33.352894 -117.250344 269 670ft 0kts
22-Dec-20 20:57 33.352894 -117.250344 269 670ft 0kts
22-Dec-20 20:58 33.352894 -117.250344 269 670ft 0kts
22-Dec-20 20:59 33.352699 -117.250526 209 670ft 2kts
22-Dec-20 21:00 33.352503 -117.250673 217 670ft 0kts
22-Dec-20 21:01 33.352183 -117.251072 7 670ft 0kts
22-Dec-20 21:02 33.364794 -117.247725 11 1402ft 89kts
22-Dec-20 21:03 33.392384 -117.240548 9 3395ft 122kts
22-Dec-20 21:04 33.422882 -117.220411 35 5081ft 171kts
22-Dec-20 21:05 33.466746 -117.175895 40 5617ft 209kts
22-Dec-20 21:06 33.516297 -117.164343 353 7367ft 179kts
22-Dec-20 21:07 33.564094 -117.168312 353 9307ft 178kts
22-Dec-20 21:07 33.606484 -117.171687 351 11029ft 180kts
22-Dec-20 21:08 33.655440 -117.175626 350 13107ft 174kts
22-Dec-20 21:10 33.710592 -117.180051 350 15503ft 171kts
22-Dec-20 21:11 33.758031 -117.183857 350 17488ft 174kts
22-Dec-20 21:11 33.798763 -117.182003 359 19154ft 181kts
22-Dec-20 21:12 33.849812 -117.174509 359 20919ft 188kts
22-Dec-20 21:13 33.902791 -117.166701 0 22572ft 196kts
22-Dec-20 21:14 33.961790 -117.158071 1 23175ft 245kts
22-Dec-20 21:15 34.033778 -117.147408 1 23156ft 270kts
22-Dec-20 21:16 34.104496 -117.136915 1 23150ft 275kts
22-Dec-20 21:17 34.176728 -117.126112 1 24461ft 241kts
22-Dec-20 21:18 34.239717 -117.116701 358 26380ft 221kts
22-Dec-20 21:19 34.294106 -117.077431 33 27985ft 250kts
22-Dec-20 21:20 34.344503 -117.016658 32 29141ft 264kts
22-Dec-20 21:21 34.401165 -116.947915 34 29160ft 306kts
22-Dec-20 21:22 34.462968 -116.872619 35 29174ft 320kts
22-Dec-20 21:23 34.526380 -116.795210 35 29169ft 324kts
22-Dec-20 21:24 34.589777 -116.717656 35 29163ft 324kts
22-Dec-20 21:25 34.654555 -116.638350 36 28206ft 346kts
22-Dec-20 21:26 34.722600 -116.554605 36 27166ft 339kts
22-Dec-20 21:27 34.786550 -116.475801 36 27140ft 321kts
22-Dec-20 21:28 34.847448 -116.397123 37 27119ft 318kts
22-Dec-20 21:29 34.907718 -116.318334 38 27094ft 317kts
22-Dec-20 21:30 34.967796 -116.239638 38 27095ft 316kts
22-Dec-20 21:31 35.029473 -116.158716 39 25965ft 337kts
22-Dec-20 21:32 35.093673 -116.074166 39 24440ft 341kts
22-Dec-20 21:33 35.156091 -115.991731 39 23159ft 331kts
22-Dec-20 21:34 35.216350 -115.912039 38 20790ft 313kts
22-Dec-20 21:35 35.273958 -115.835644 38 18577ft 301kts
22-Dec-20 21:36 35.330108 -115.761121 39 16388ft 297kts
22-Dec-20 21:37 35.385721 -115.687065 41 14204ft 297kts
22-Dec-20 21:38 35.441768 -115.612268 44 12004ft 302kts
22-Dec-20 21:39 35.497889 -115.537081 44 10264ft 290kts
22-Dec-20 21:40 35.548782 -115.468748 44 9997ft 259kts
22-Dec-20 21:41 35.596867 -115.404204 44 10001ft 257kts
22-Dec-20 21:42 35.645217 -115.339169 44 9998ft 257kts
22-Dec-20 21:43 35.698321 -115.283474 20 10003ft 251kts
22-Dec-20 21:44 35.762308 -115.249092 20 9998ft 251kts
22-Dec-20 21:45 35.825796 -115.213706 21 8910ft 227kts
22-Dec-20 21:46 35.878716 -115.185061 21 7348ft 198kts
22-Dec-20 21:47 35.924430 -115.160158 21 6978ft 157kts
22-Dec-20 21:48 35.963797 -115.138309 21 7008ft 161kts
22-Dec-20 21:49 35.973597 -115.173786 208 6497ft 211kts
22-Dec-20 21:50 35.914146 -115.177559 181 4979ft 190kts
22-Dec-20 21:51 35.885559 -115.159570 51 4601ft 127kts
22-Dec-20 21:52 35.911686 -115.141054 20 4184ft 91kts
22-Dec-20 21:53 35.935872 -115.135727 1 3260ft 89kts
22-Dec-20 21:54 35.958575 -115.135606 359 2650ft 79kts
22-Dec-20 21:55 35.974396 -115.135624 288 2430ft 16kts
22-Dec-20 21:56 35.974531 -115.136366 334 2430ft 5kts

Navigation Log

Ident Type
Flight plan parsing failed, navigation log unavailable